createdAt,value
2023-04-19T00:00:43.940Z,29.83
2023-04-19T00:03:33.352Z,33.45
2023-04-19T00:06:21.782Z,56.58
2023-04-19T00:09:10.195Z,59.25
2023-04-19T00:11:59.217Z,99.47
2023-04-19T00:14:48.044Z,187.82
2023-04-19T00:17:36.954Z,81.03
2023-04-19T00:20:26.286Z,100.70
2023-04-19T00:23:15.144Z,343.00
2023-04-19T00:26:04.838Z,239.10
2023-04-19T00:28:53.773Z,114.20
2023-04-19T00:31:43.011Z,187.70
2023-04-19T00:34:31.682Z,292.00
2023-04-19T00:37:20.003Z,105.38
2023-04-19T00:40:09.285Z,243.70
2023-04-19T00:42:59.556Z,113.88
2023-04-19T00:45:50.120Z,160.50
2023-04-19T00:48:40.591Z,119.70
2023-04-19T00:51:30.042Z,133.95
2023-04-19T00:54:19.944Z,127.38
2023-04-19T00:57:11.241Z,21.75
2023-04-19T00:59:59.816Z,62.80
2023-04-19T01:02:49.402Z,237.23
2023-04-19T01:05:41.255Z,207.13
2023-04-19T01:08:30.952Z,145.00
2023-04-19T01:11:19.427Z,91.82
2023-04-19T01:14:07.874Z,201.85
2023-04-19T01:16:58.212Z,143.57
2023-04-19T01:19:48.404Z,175.80
2023-04-19T01:22:37.847Z,61.08
2023-04-19T01:25:29.153Z,39.55
2023-04-19T01:28:43.028Z,114.25
2023-04-19T01:31:32.045Z,99.47
2023-04-19T01:34:23.265Z,70.30
2023-04-19T01:37:12.124Z,168.65
2023-04-19T01:40:03.892Z,25.33
2023-04-19T01:42:53.472Z,14.98
2023-04-19T01:45:42.025Z,30.40
2023-04-19T01:48:30.502Z,33.30
2023-04-19T01:51:21.882Z,58.90
2023-04-19T01:54:10.386Z,239.60
2023-04-19T01:56:58.688Z,40.00
2023-04-19T01:59:49.266Z,23.13
2023-04-19T02:02:38.771Z,21.38
2023-04-19T02:05:28.301Z,18.55
2023-04-19T02:08:16.749Z,17.15
2023-04-19T02:11:10.460Z,19.35
2023-04-19T02:13:59.828Z,16.80
2023-04-19T02:16:50.181Z,21.70
2023-04-19T02:19:38.614Z,20.52
2023-04-19T02:22:27.502Z,27.73
2023-04-19T02:25:17.088Z,22.77
2023-04-19T02:28:08.321Z,26.90
2023-04-19T02:30:57.218Z,31.58
2023-04-19T02:33:46.966Z,45.30
2023-04-19T02:36:36.291Z,93.53
2023-04-19T02:39:25.377Z,70.43
2023-04-19T02:42:15.202Z,58.15
2023-04-19T02:45:04.237Z,73.03
2023-04-19T02:47:53.281Z,45.38
2023-04-19T02:50:42.194Z,36.88
2023-04-19T02:53:30.510Z,35.50
2023-04-19T02:56:19.464Z,87.63
2023-04-19T02:59:08.585Z,53.80
2023-04-19T03:01:57.701Z,35.80
2023-04-19T03:04:47.684Z,24.52
2023-04-19T03:07:36.730Z,28.73
2023-04-19T03:10:25.476Z,15.90
2023-04-19T03:13:14.495Z,15.65
2023-04-19T03:16:03.370Z,12.38
2023-04-19T03:18:54.394Z,12.27
2023-04-19T03:21:47.025Z,13.57
2023-04-19T03:24:37.609Z,13.18
2023-04-19T03:27:45.817Z,14.15
2023-04-19T03:30:36.748Z,12.50
2023-04-19T03:33:25.847Z,14.13
2023-04-19T03:36:16.529Z,11.63
2023-04-19T03:39:07.738Z,10.98
2023-04-19T03:41:58.745Z,12.40
2023-04-19T03:45:08.420Z,14.95
2023-04-19T03:48:03.084Z,17.60
2023-04-19T03:50:53.496Z,13.52
2023-04-19T03:53:42.558Z,11.88
2023-04-19T03:56:31.554Z,17.48
2023-04-19T03:59:20.417Z,12.77
2023-04-19T04:02:10.200Z,15.30
2023-04-19T04:04:59.284Z,12.45
2023-04-19T04:07:47.819Z,16.27
2023-04-19T04:10:36.821Z,16.60
2023-04-19T04:13:25.981Z,17.17
2023-04-19T04:16:26.247Z,16.10
2023-04-19T04:19:15.620Z,14.93
2023-04-19T04:22:06.291Z,13.52
2023-04-19T04:25:01.516Z,12.98
2023-04-19T04:27:59.418Z,15.35
2023-04-19T04:30:47.888Z,14.48
2023-04-19T04:33:37.387Z,15.05
2023-04-19T04:36:30.130Z,15.20
2023-04-19T04:39:20.080Z,10.45
2023-04-19T04:42:09.374Z,12.63
2023-04-19T04:44:58.154Z,13.18
2023-04-19T04:47:47.149Z,17.15
2023-04-19T04:50:37.223Z,13.77
2023-04-19T04:53:29.003Z,9.80
2023-04-19T04:56:18.264Z,12.15
2023-04-19T04:59:08.110Z,10.27
2023-04-19T05:02:01.087Z,10.47
2023-04-19T05:04:50.463Z,10.85
2023-04-19T05:07:39.996Z,11.40
2023-04-19T05:10:28.520Z,9.18
2023-04-19T05:13:17.327Z,8.80
2023-04-19T05:16:06.382Z,13.05
2023-04-19T05:18:56.044Z,8.63
2023-04-19T05:21:47.065Z,9.57
2023-04-19T05:24:36.981Z,8.88
2023-04-19T05:27:26.449Z,8.23
2023-04-19T05:30:16.172Z,11.70
2023-04-19T05:33:06.986Z,10.25
2023-04-19T05:35:55.401Z,12.05
2023-04-19T05:38:44.244Z,10.57
2023-04-19T05:41:33.180Z,10.68
2023-04-19T05:44:21.862Z,11.85
2023-04-19T05:47:10.838Z,6.97
2023-04-19T05:50:22.917Z,7.63
2023-04-19T05:53:31.895Z,5.90
2023-04-19T05:56:20.806Z,6.28
2023-04-19T05:59:11.723Z,6.05
2023-04-19T06:02:01.693Z,5.47
2023-04-19T06:04:50.730Z,6.60
2023-04-19T06:07:43.304Z,6.18
2023-04-19T06:10:52.667Z,6.40
2023-04-19T06:13:45.186Z,6.43
2023-04-19T06:16:34.229Z,9.15
2023-04-19T06:19:23.515Z,6.68
2023-04-19T06:22:12.577Z,6.75
2023-04-19T06:25:02.203Z,6.65
2023-04-19T06:27:52.886Z,9.43
2023-04-19T06:30:42.235Z,7.88
2023-04-19T06:33:31.449Z,10.00
2023-04-19T06:36:20.477Z,10.40
2023-04-19T06:39:10.070Z,10.57
2023-04-19T06:41:58.975Z,8.60
2023-04-19T06:44:48.186Z,9.95
2023-04-19T06:47:36.956Z,7.25
2023-04-19T06:50:25.889Z,6.82
2023-04-19T06:53:14.837Z,7.40
2023-04-19T06:56:04.850Z,6.95
2023-04-19T06:58:53.535Z,7.32
2023-04-19T07:01:42.409Z,8.23
2023-04-19T07:04:31.688Z,8.45
2023-04-19T07:07:20.344Z,7.30
2023-04-19T07:10:10.595Z,8.60
2023-04-19T07:13:00.068Z,7.78
2023-04-19T07:15:49.009Z,7.32
2023-04-19T07:18:37.708Z,5.60
2023-04-19T07:21:28.735Z,9.20
2023-04-19T07:24:18.085Z,5.43
2023-04-19T07:27:06.833Z,8.27
2023-04-19T07:29:55.646Z,10.48
2023-04-19T07:32:44.717Z,8.02
2023-04-19T07:35:34.072Z,6.30
2023-04-19T07:38:23.203Z,8.27
2023-04-19T07:41:12.085Z,5.82
2023-04-19T07:44:01.883Z,7.00
2023-04-19T07:46:51.145Z,9.65
2023-04-19T07:49:40.065Z,6.45
2023-04-19T07:52:29.082Z,5.68
2023-04-19T07:55:17.361Z,4.95
2023-04-19T07:58:06.508Z,5.82
2023-04-19T08:00:54.979Z,6.38
2023-04-19T08:03:43.593Z,7.50
2023-04-19T08:06:33.282Z,4.88
2023-04-19T08:09:22.358Z,5.85
2023-04-19T08:12:14.800Z,5.70
2023-04-19T08:15:29.587Z,5.68
2023-04-19T08:18:18.226Z,5.15
2023-04-19T08:21:07.735Z,5.25
2023-04-19T08:23:56.617Z,5.30
2023-04-19T08:26:53.515Z,6.35
2023-04-19T08:29:42.720Z,5.00
2023-04-19T08:32:31.131Z,6.97
2023-04-19T08:35:21.391Z,4.20
2023-04-19T08:38:10.437Z,5.00
2023-04-19T08:41:01.796Z,7.05
2023-04-19T08:43:52.685Z,4.28
2023-04-19T08:46:42.566Z,4.18
2023-04-19T08:49:35.397Z,5.47
2023-04-19T08:52:25.535Z,4.05
2023-04-19T08:55:15.516Z,6.65
2023-04-19T08:58:07.613Z,4.00
2023-04-19T09:01:02.858Z,4.10
2023-04-19T09:04:00.218Z,5.53
2023-04-19T09:06:52.299Z,4.10
2023-04-19T09:09:59.781Z,3.97
2023-04-19T09:13:06.831Z,4.95
2023-04-19T09:15:57.301Z,5.10
2023-04-19T09:19:08.172Z,4.65
2023-04-19T09:22:16.175Z,3.90
2023-04-19T09:28:12.978Z,3.53
2023-04-19T09:31:33.225Z,3.50
2023-04-19T09:34:25.438Z,5.03
2023-04-19T09:37:21.428Z,3.85
2023-04-19T09:40:28.249Z,3.95
2023-04-19T09:43:55.915Z,6.60
2023-04-19T09:46:38.400Z,4.57
2023-04-19T09:49:41.651Z,5.70
2023-04-19T09:52:35.152Z,5.07
2023-04-19T09:55:27.598Z,4.85
2023-04-19T09:58:22.664Z,5.28
2023-04-19T10:01:15.643Z,6.78
2023-04-19T10:04:20.217Z,6.68
2023-04-19T10:10:19.468Z,5.00
2023-04-19T10:16:18.019Z,6.15
2023-04-19T10:19:22.349Z,5.90
2023-04-19T10:22:14.463Z,5.28
2023-04-19T10:25:17.036Z,4.43
2023-04-19T10:28:06.733Z,14.10
2023-04-19T10:31:02.067Z,5.25
2023-04-19T10:33:51.888Z,6.88
2023-04-19T10:36:40.738Z,5.90
2023-04-19T10:39:42.986Z,4.97
2023-04-19T10:43:08.916Z,5.38
2023-04-19T10:46:20.731Z,5.93
2023-04-19T10:49:10.329Z,4.80
2023-04-19T10:52:00.274Z,4.35
2023-04-19T10:54:57.377Z,4.35
2023-04-19T10:58:05.720Z,4.47
2023-04-19T11:01:34.231Z,5.60
2023-04-19T11:04:32.032Z,4.55
2023-04-19T11:07:21.632Z,6.07
2023-04-19T11:10:10.777Z,4.30
2023-04-19T11:13:00.796Z,4.47
2023-04-19T11:15:49.228Z,3.90
2023-04-19T11:18:38.048Z,4.72
2023-04-19T11:21:30.388Z,4.15
2023-04-19T11:24:20.794Z,4.37
2023-04-19T11:27:09.911Z,4.82
2023-04-19T11:30:12.860Z,8.68
2023-04-19T11:33:02.390Z,5.18
2023-04-19T11:35:51.402Z,5.10
2023-04-19T11:38:40.637Z,5.00
2023-04-19T11:41:29.637Z,5.35
2023-04-19T11:44:22.008Z,5.38
2023-04-19T11:47:11.448Z,8.48
2023-04-19T11:50:36.612Z,9.30
2023-04-19T11:53:27.295Z,6.55
2023-04-19T11:56:16.924Z,4.40
2023-04-19T11:59:10.427Z,7.95
2023-04-19T12:02:25.428Z,5.43
2023-04-19T12:05:16.386Z,5.05
2023-04-19T12:08:08.554Z,5.35
2023-04-19T12:10:59.230Z,5.60
2023-04-19T12:13:48.088Z,5.13
2023-04-19T12:16:36.895Z,6.18
2023-04-19T12:19:25.287Z,5.07
2023-04-19T12:22:22.352Z,5.13
2023-04-19T12:25:10.952Z,4.60
2023-04-19T12:28:01.465Z,5.25
2023-04-19T12:30:51.175Z,7.78
2023-04-19T12:33:39.358Z,10.88
2023-04-19T12:36:28.569Z,7.60
2023-04-19T12:39:17.837Z,8.07
2023-04-19T12:42:07.335Z,6.35
2023-04-19T12:44:55.783Z,5.60
2023-04-19T12:47:45.451Z,6.50
2023-04-19T12:50:34.560Z,4.80
2023-04-19T12:53:24.428Z,4.32
2023-04-19T12:56:15.799Z,6.63
2023-04-19T12:59:04.273Z,5.85
2023-04-19T13:01:53.694Z,5.60
2023-04-19T13:04:43.502Z,5.00
2023-04-19T13:07:32.734Z,7.72
2023-04-19T13:10:21.968Z,5.20
2023-04-19T13:13:11.085Z,3.47
2023-04-19T13:15:59.516Z,4.90
2023-04-19T13:18:48.632Z,5.78
2023-04-19T13:21:37.737Z,4.65
2023-04-19T13:24:26.106Z,5.10
2023-04-19T13:27:15.401Z,4.78
2023-04-19T13:30:04.539Z,4.85
2023-04-19T13:32:56.375Z,4.30
2023-04-19T13:35:45.224Z,7.38
2023-04-19T13:38:33.587Z,4.60
2023-04-19T13:41:22.536Z,6.53
2023-04-19T13:44:12.018Z,4.20
2023-04-19T13:47:01.157Z,3.65
2023-04-19T13:49:52.443Z,7.10
2023-04-19T13:52:41.290Z,5.30
2023-04-19T13:55:30.254Z,7.72
2023-04-19T13:58:19.619Z,10.20
2023-04-19T14:01:08.586Z,7.28
2023-04-19T14:03:57.803Z,4.93
2023-04-19T14:06:46.383Z,9.20
2023-04-19T14:09:35.471Z,8.07
2023-04-19T14:12:25.228Z,4.78
2023-04-19T14:15:14.603Z,4.60
2023-04-19T14:18:03.847Z,7.55
2023-04-19T14:20:52.270Z,7.90
2023-04-19T14:23:41.267Z,5.18
2023-04-19T14:26:30.187Z,5.35
2023-04-19T14:29:19.543Z,4.65
2023-04-19T14:32:24.457Z,6.50
2023-04-19T14:35:14.972Z,4.97
2023-04-19T14:38:03.813Z,4.32
2023-04-19T14:40:53.217Z,8.65
2023-04-19T14:43:41.706Z,5.63
2023-04-19T14:46:30.773Z,4.95
2023-04-19T14:49:19.286Z,5.90
2023-04-19T14:52:08.188Z,5.72
2023-04-19T14:54:57.811Z,5.38
2023-04-19T14:57:47.223Z,6.57
2023-04-19T15:00:36.193Z,4.50
2023-04-19T15:03:26.127Z,5.93
2023-04-19T15:06:15.924Z,7.57
2023-04-19T15:09:05.417Z,6.57
2023-04-19T15:11:54.610Z,6.97
2023-04-19T15:14:43.707Z,8.07
2023-04-19T15:17:32.652Z,6.25
2023-04-19T15:20:21.974Z,7.25
2023-04-19T15:23:11.149Z,8.82
2023-04-19T15:26:00.648Z,7.47
2023-04-19T15:28:50.301Z,5.93
2023-04-19T15:31:39.344Z,5.75
2023-04-19T15:34:28.171Z,6.80
2023-04-19T15:37:17.436Z,6.40
2023-04-19T15:40:09.764Z,6.20
2023-04-19T15:42:58.204Z,8.20
2023-04-19T15:45:47.280Z,8.00
2023-04-19T15:48:36.033Z,5.60
2023-04-19T15:51:25.353Z,6.88
2023-04-19T15:54:15.117Z,7.70
2023-04-19T15:57:04.312Z,6.03
2023-04-19T15:59:52.703Z,5.00
2023-04-19T16:02:41.743Z,6.05
2023-04-19T16:05:30.796Z,10.05
2023-04-19T16:08:20.026Z,7.47
2023-04-19T16:11:08.893Z,7.00
2023-04-19T16:14:00.370Z,6.00
2023-04-19T16:16:49.235Z,5.57
2023-04-19T16:19:38.570Z,9.30
2023-04-19T16:22:27.391Z,7.40
2023-04-19T16:25:18.515Z,6.85
2023-04-19T16:28:07.618Z,10.98
2023-04-19T16:30:57.157Z,10.43
2023-04-19T16:33:46.252Z,11.15
2023-04-19T16:36:35.107Z,15.32
2023-04-19T16:39:23.920Z,16.33
2023-04-19T16:42:12.589Z,11.77
2023-04-19T16:45:01.876Z,10.73
2023-04-19T16:47:53.939Z,7.80
2023-04-19T16:50:42.508Z,13.10
2023-04-19T16:53:32.476Z,12.50
2023-04-19T16:56:22.016Z,10.35
2023-04-19T16:59:10.698Z,11.63
2023-04-19T17:02:02.584Z,8.98
2023-04-19T17:04:51.898Z,9.48
2023-04-19T17:07:40.988Z,9.20
2023-04-19T17:10:29.349Z,10.25
2023-04-19T17:13:18.167Z,18.77
2023-04-19T17:16:07.594Z,17.85
2023-04-19T17:18:56.980Z,13.52
2023-04-19T17:21:46.484Z,13.45
2023-04-19T17:24:35.318Z,14.50
2023-04-19T17:27:24.588Z,13.93
2023-04-19T17:30:14.253Z,12.13
2023-04-19T17:33:03.233Z,10.77
2023-04-19T17:35:51.738Z,10.57
2023-04-19T17:38:40.764Z,9.73
2023-04-19T17:41:29.697Z,10.43
2023-04-19T17:44:18.849Z,9.40
2023-04-19T17:47:08.100Z,11.15
2023-04-19T17:50:07.157Z,12.95
2023-04-19T17:52:56.720Z,11.77
2023-04-19T17:55:46.317Z,11.77
2023-04-19T17:58:36.578Z,12.63
2023-04-19T18:01:25.354Z,12.00
2023-04-19T18:04:18.112Z,12.15
2023-04-19T18:07:07.366Z,10.95
2023-04-19T18:09:56.159Z,11.43
2023-04-19T18:12:45.325Z,11.57
2023-04-19T18:15:34.140Z,11.60
2023-04-19T18:18:26.155Z,14.75
2023-04-19T18:21:15.563Z,15.70
2023-04-19T18:24:04.436Z,18.15
2023-04-19T18:26:53.361Z,23.33
2023-04-19T18:29:41.722Z,23.85
2023-04-19T18:32:32.222Z,24.70
2023-04-19T18:35:22.122Z,21.98
2023-04-19T18:38:11.341Z,20.65
2023-04-19T18:40:59.831Z,14.90
2023-04-19T18:44:08.155Z,14.90
2023-04-19T18:46:57.159Z,12.38
2023-04-19T18:49:58.127Z,12.57
2023-04-19T18:52:54.581Z,13.60
2023-04-19T18:55:42.855Z,14.38
2023-04-19T18:58:32.356Z,11.27
2023-04-19T19:01:21.857Z,33.90
2023-04-19T19:07:14.330Z,9.60
2023-04-19T19:10:18.232Z,10.40
2023-04-19T19:13:35.148Z,11.00
2023-04-19T19:16:25.347Z,11.90
2023-04-19T19:19:15.115Z,16.95
2023-04-19T19:22:09.455Z,15.18
2023-04-19T19:25:05.303Z,10.65
2023-04-19T19:30:49.916Z,9.82
2023-04-19T19:33:40.555Z,13.07
2023-04-19T19:36:30.195Z,15.23
2023-04-19T19:39:18.730Z,10.13
2023-04-19T19:42:08.520Z,12.27
2023-04-19T19:44:58.290Z,20.08
2023-04-19T19:47:49.578Z,21.60
2023-04-19T19:51:07.384Z,25.60
2023-04-19T19:53:48.895Z,17.35
2023-04-19T19:56:48.117Z,19.30
2023-04-19T19:59:51.577Z,21.80
2023-04-19T20:02:54.299Z,14.57
2023-04-19T20:05:45.452Z,16.73
2023-04-19T20:08:37.257Z,17.63
2023-04-19T20:11:28.800Z,21.13
2023-04-19T20:14:17.428Z,16.73
2023-04-19T20:17:07.294Z,45.13
2023-04-19T20:19:56.698Z,15.88
2023-04-19T20:22:46.065Z,13.95
2023-04-19T20:25:34.688Z,16.10
2023-04-19T20:28:23.790Z,19.58
2023-04-19T20:31:12.491Z,14.88
2023-04-19T20:34:01.366Z,14.95
2023-04-19T20:36:51.660Z,13.35
2023-04-19T20:39:40.692Z,14.95
2023-04-19T20:42:34.071Z,19.10
2023-04-19T20:45:23.707Z,19.15
2023-04-19T20:48:13.251Z,21.80
2023-04-19T20:51:02.589Z,22.90
2023-04-19T20:53:51.430Z,19.67
2023-04-19T20:56:39.779Z,18.65
2023-04-19T21:00:42.580Z,18.92
2023-04-19T21:03:31.868Z,21.33
2023-04-19T21:06:23.230Z,21.17
2023-04-19T21:09:12.240Z,22.73
2023-04-19T21:12:02.368Z,21.60
2023-04-19T21:14:52.944Z,22.10
2023-04-19T21:17:41.966Z,20.88
2023-04-19T21:20:30.838Z,19.67
2023-04-19T21:23:19.401Z,20.92
2023-04-19T21:26:09.691Z,19.85
2023-04-19T21:28:58.931Z,19.75
2023-04-19T21:31:47.949Z,20.90
2023-04-19T21:34:36.806Z,20.00
2023-04-19T21:37:26.325Z,18.75
2023-04-19T21:40:15.555Z,20.13
2023-04-19T21:43:04.841Z,21.02
2023-04-19T21:45:53.259Z,23.48
2023-04-19T21:48:42.253Z,23.35
2023-04-19T21:51:31.645Z,20.38
2023-04-19T21:54:31.017Z,22.48
2023-04-19T21:57:22.166Z,23.13
2023-04-19T22:00:11.496Z,17.60
2023-04-19T22:03:01.686Z,18.20
2023-04-19T22:05:51.033Z,19.20
2023-04-19T22:08:40.024Z,16.70
2023-04-19T22:11:30.187Z,18.17
2023-04-19T22:14:18.751Z,19.83
2023-04-19T22:17:07.539Z,20.90
2023-04-19T22:19:56.408Z,20.10
2023-04-19T22:22:45.503Z,16.55
2023-04-19T22:25:33.930Z,16.75
2023-04-19T22:28:22.891Z,17.33
2023-04-19T22:31:11.428Z,17.02
2023-04-19T22:33:59.902Z,16.70
2023-04-19T22:36:48.806Z,20.05
2023-04-19T22:39:37.068Z,19.17
2023-04-19T22:42:26.216Z,18.42
2023-04-19T22:45:14.912Z,19.17
2023-04-19T22:48:04.202Z,18.08
2023-04-19T22:50:53.688Z,15.93
2023-04-19T22:53:42.416Z,17.60
2023-04-19T22:56:31.103Z,20.30
2023-04-19T22:59:19.526Z,18.45
2023-04-19T23:02:08.414Z,19.00
2023-04-19T23:04:58.913Z,21.23
2023-04-19T23:07:49.701Z,25.23
2023-04-19T23:10:39.072Z,20.10
2023-04-19T23:13:28.648Z,40.40
2023-04-19T23:16:18.348Z,18.33
2023-04-19T23:19:07.758Z,19.25
2023-04-19T23:21:56.876Z,18.40
2023-04-19T23:24:45.360Z,20.48
2023-04-19T23:27:35.620Z,19.58
2023-04-19T23:30:24.545Z,19.52
2023-04-19T23:33:13.279Z,18.48
2023-04-19T23:36:02.113Z,21.65
2023-04-19T23:38:50.944Z,22.40
2023-04-19T23:41:39.670Z,20.88
2023-04-19T23:44:29.217Z,22.00
2023-04-19T23:47:18.170Z,23.13
2023-04-19T23:50:07.233Z,21.63
2023-04-19T23:52:56.626Z,24.08
2023-04-19T23:55:46.035Z,23.08
2023-04-19T23:58:34.715Z,22.73
